Time;durP1;ratioP1;P1;durP2;ratioP2;P2;SDS_P1;SDS_P2;PMS_P1;PMS_P2;Temp;Humidity;BMP_temperature;BMP_pressure;BME280_temperature;BME280_humidity;BME280_pressure;Samples;Min_cycle;Max_cycle;Signal;HPM_P1;HPM_P2
2022/11/18 00:01:23;;;;;;;;;;;9.40;99.90;;;;;;5094896;28;19915;-38
2022/11/18 00:03:49;;;;;;;;;;;9.40;99.90;;;;;;5094776;28;19981;-36
2022/11/18 00:06:19;;;;;;;;;;;9.30;99.90;;;;;;5094372;28;19912;-45
2022/11/18 00:08:44;;;;;;;;;;;9.30;99.90;;;;;;5096855;28;19915;-51
2022/11/18 00:14:17;;;;;;;;;;;9.30;99.90;;;;;;5098559;28;20298;-46
2022/11/18 00:14:19;;;;;;;;;;;9.30;99.90;;;;;;5102008;28;19961;-47
2022/11/18 00:16:47;;;;;;;;;;;9.30;99.90;;;;;;5106743;28;19958;-44
2022/11/18 00:19:12;;;;;;;;;;;9.40;99.90;;;;;;5112435;28;21449;-43
2022/11/18 00:21:38;;;;;;;;;;;9.40;99.90;;;;;;5110806;28;20375;-43
2022/11/18 00:24:04;;;;;;;;;;;9.30;99.90;;;;;;5108116;28;19955;-46
2022/11/18 00:26:29;;;;;;;;;;;9.30;99.90;;;;;;5113650;28;19931;-40
2022/11/18 00:28:54;;;;;;;;;;;9.40;99.90;;;;;;5113788;28;19904;-39
2022/11/18 00:31:20;;;;;;;;;;;9.30;99.90;;;;;;5105634;28;20260;-35
2022/11/18 00:33:45;;;;;;;;;;;9.40;99.90;;;;;;5093941;28;19952;-43
2022/11/18 00:36:11;;;;;;;;;;;9.30;99.90;;;;;;5094279;28;20325;-43
2022/11/18 00:38:37;;;;;;;;;;;9.30;99.90;;;;;;5110933;28;19907;-42
2022/11/18 00:41:04;;;;;;;;;;;9.30;99.90;;;;;;5110905;28;19956;-43
2022/11/18 00:43:29;;;;;;;;;;;9.30;99.90;;;;;;5114754;28;20362;-44
2022/11/18 00:45:55;;;;;;;;;;;9.30;99.90;;;;;;5095151;28;20037;-46
2022/11/18 00:48:21;;;;;;;;;;;9.30;99.90;;;;;;5104164;28;19911;-44
2022/11/18 00:50:50;;;;;;;;;;;9.20;99.90;;;;;;5114344;28;19911;-42
2022/11/18 00:53:16;;;;;;;;;;;9.30;99.90;;;;;;5112579;28;20139;-43
2022/11/18 00:55:41;;;;;;;;;;;9.30;99.90;;;;;;5114383;28;19904;-42
2022/11/18 00:58:07;;;;;;;;;;;9.30;99.90;;;;;;5094931;28;20379;-47
2022/11/18 01:00:32;;;;;;;;;;;9.30;99.90;;;;;;5093870;28;19904;-46
2022/11/18 01:02:58;;;;;;;;;;;9.30;99.90;;;;;;5094413;28;19910;-43
2022/11/18 01:05:23;;;;;;;;;;;9.30;99.90;;;;;;5093726;28;19908;-50
2022/11/18 01:07:49;;;;;;;;;;;9.30;99.90;;;;;;5096995;28;19908;-43
2022/11/18 01:10:15;;;;;;;;;;;9.30;99.90;;;;;;5106039;28;20402;-47
2022/11/18 01:15:24;;;;;;;;;;;9.20;99.90;;;;;;5093610;28;19957;-44
2022/11/18 01:17:50;;;;;;;;;;;9.20;99.90;;;;;;5095435;28;19912;-45
2022/11/18 01:20:15;;;;;;;;;;;9.20;99.90;;;;;;5093537;28;20348;-45
2022/11/18 01:22:41;;;;;;;;;;;9.20;99.90;;;;;;5104417;28;19907;-46
2022/11/18 01:25:07;;;;;;;;;;;9.20;99.90;;;;;;5113857;28;19910;-47
2022/11/18 01:27:32;;;;;;;;;;;9.20;99.90;;;;;;5095713;28;20372;-45
2022/11/18 01:29:58;;;;;;;;;;;9.20;99.90;;;;;;5093424;28;19908;-44
2022/11/18 01:35:08;;;;;;;;;;;9.10;99.90;;;;;;5097108;28;19910;-44
2022/11/18 01:37:33;;;;;;;;;;;9.10;99.90;;;;;;5111940;28;20329;-42
2022/11/18 01:39:59;;;;;;;;;;;9.10;99.90;;;;;;5113751;28;19904;-44
2022/11/18 01:42:24;;;;;;;;;;;9.10;99.90;;;;;;5098245;28;19914;-41
2022/11/18 01:44:58;;;;;;;;;;;9.10;99.90;;;;;;5093313;28;19904;-41
2022/11/18 01:47:26;;;;;;;;;;;9.00;99.90;;;;;;5108159;28;20379;-43
2022/11/18 01:49:51;;;;;;;;;;;9.00;99.90;;;;;;5113466;28;20002;-40
2022/11/18 01:52:17;;;;;;;;;;;9.00;99.90;;;;;;5110962;28;19977;-38
2022/11/18 01:54:46;;;;;;;;;;;9.00;99.90;;;;;;5113508;28;19908;-40
2022/11/18 01:57:17;;;;;;;;;;;8.90;99.90;;;;;;5111327;28;19915;-43
2022/11/18 01:59:45;;;;;;;;;;;9.00;99.90;;;;;;5113837;28;20377;-39
2022/11/18 02:02:13;;;;;;;;;;;9.00;99.90;;;;;;5113247;28;20409;-35
2022/11/18 02:04:39;;;;;;;;;;;9.00;99.90;;;;;;5113501;28;20356;-39
2022/11/18 02:07:06;;;;;;;;;;;9.00;99.90;;;;;;5100200;28;19908;-42
2022/11/18 02:09:31;;;;;;;;;;;9.00;99.90;;;;;;5093782;28;20370;-41
2022/11/18 02:11:57;;;;;;;;;;;9.00;99.90;;;;;;5092998;28;19904;-41
2022/11/18 02:14:25;;;;;;;;;;;9.00;99.90;;;;;;5092963;28;20013;-40
2022/11/18 02:17:03;;;;;;;;;;;9.00;99.90;;;;;;5102706;28;20320;-35
2022/11/18 02:19:40;;;;;;;;;;;9.00;99.90;;;;;;5113331;28;19946;-37
2022/11/18 02:22:09;;;;;;;;;;;9.00;99.90;;;;;;5110345;28;20378;-40
2022/11/18 02:24:42;;;;;;;;;;;8.90;99.90;;;;;;5107985;28;19971;-40
2022/11/18 02:27:19;;;;;;;;;;;9.00;99.90;;;;;;5103298;28;19977;-37
2022/11/18 02:29:50;;;;;;;;;;;8.90;99.90;;;;;;5101582;28;20374;-37
2022/11/18 02:32:17;;;;;;;;;;;8.90;99.90;;;;;;5114737;28;20418;-39
2022/11/18 02:34:49;;;;;;;;;;;8.90;99.90;;;;;;5097840;28;19980;-40
2022/11/18 02:37:20;;;;;;;;;;;8.80;99.90;;;;;;5111127;28;20405;-42
2022/11/18 02:39:53;;;;;;;;;;;8.80;99.90;;;;;;5116895;28;19907;-37
2022/11/18 02:42:19;;;;;;;;;;;8.90;99.90;;;;;;5116845;28;19910;-43
2022/11/18 02:44:48;;;;;;;;;;;8.90;99.90;;;;;;5114747;28;20283;-43
2022/11/18 02:47:15;;;;;;;;;;;8.90;99.90;;;;;;5115403;28;20284;-36
2022/11/18 02:49:43;;;;;;;;;;;8.90;99.90;;;;;;5116650;28;19939;-40
2022/11/18 02:52:10;;;;;;;;;;;8.80;99.90;;;;;;5099791;28;19908;-36
2022/11/18 02:54:37;;;;;;;;;;;8.80;99.90;;;;;;5106104;28;19908;-34
2022/11/18 02:57:03;;;;;;;;;;;8.80;99.90;;;;;;5116432;28;20423;-41
2022/11/18 02:59:29;;;;;;;;;;;8.80;99.90;;;;;;5116565;28;20003;-37
2022/11/18 03:01:54;;;;;;;;;;;8.80;99.90;;;;;;5112304;28;19908;-36
2022/11/18 03:04:20;;;;;;;;;;;8.90;99.90;;;;;;5116426;28;19926;-34
2022/11/18 03:06:52;;;;;;;;;;;8.90;99.90;;;;;;5113767;28;19951;-39
2022/11/18 03:09:30;;;;;;;;;;;8.90;99.90;;;;;;5116345;28;20422;-38
2022/11/18 03:12:04;;;;;;;;;;;8.80;99.90;;;;;;5114224;28;19911;-38
2022/11/18 03:14:30;;;;;;;;;;;8.80;99.90;;;;;;5103342;28;20287;-33
2022/11/18 03:16:58;;;;;;;;;;;8.90;99.90;;;;;;5096355;28;19914;-38
2022/11/18 03:19:33;;;;;;;;;;;8.90;99.90;;;;;;5096010;28;20337;-38
2022/11/18 03:22:24;;;;;;;;;;;8.80;99.90;;;;;;5110908;28;20409;-38
2022/11/18 03:25:03;;;;;;;;;;;8.80;99.90;;;;;;5112861;28;19990;-40
2022/11/18 03:27:37;;;;;;;;;;;8.80;99.90;;;;;;5116248;28;19931;-42
2022/11/18 03:30:07;;;;;;;;;;;8.70;99.90;;;;;;5115121;28;19907;-41
2022/11/18 03:32:36;;;;;;;;;;;8.80;99.90;;;;;;5114960;28;19969;-41
2022/11/18 03:35:04;;;;;;;;;;;8.70;99.90;;;;;;5104328;28;19904;-37
2022/11/18 03:37:31;;;;;;;;;;;8.80;99.90;;;;;;5112971;28;19908;-56
2022/11/18 03:40:00;;;;;;;;;;;8.90;99.90;;;;;;5115755;28;19904;-37
2022/11/18 03:42:35;;;;;;;;;;;8.80;99.90;;;;;;5108561;28;19977;-36
2022/11/18 03:45:08;;;;;;;;;;;8.80;99.90;;;;;;5110917;28;20376;-37
2022/11/18 03:47:38;;;;;;;;;;;8.80;99.90;;;;;;5095208;28;20379;-41
2022/11/18 03:50:07;;;;;;;;;;;8.80;99.90;;;;;;5105378;28;20391;-39
2022/11/18 03:52:35;;;;;;;;;;;8.80;99.90;;;;;;5095228;28;19915;-41
2022/11/18 03:55:04;;;;;;;;;;;8.80;99.90;;;;;;5095041;28;19999;-40
2022/11/18 03:57:39;;;;;;;;;;;8.80;99.90;;;;;;5104233;28;20364;-35
2022/11/18 04:00:09;;;;;;;;;;;8.80;99.90;;;;;;5112695;28;19915;-41
2022/11/18 04:02:36;;;;;;;;;;;8.70;99.90;;;;;;5115521;28;19908;-41
2022/11/18 04:05:03;;;;;;;;;;;8.70;99.90;;;;;;5112868;28;20322;-44
2022/11/18 04:07:28;;;;;;;;;;;8.70;99.90;;;;;;5107365;28;19952;-36
2022/11/18 04:09:56;;;;;;;;;;;8.70;99.90;;;;;;5104406;28;20002;-39
2022/11/18 04:12:23;;;;;;;;;;;8.80;99.90;;;;;;5094739;28;19904;-38
2022/11/18 04:14:51;;;;;;;;;;;8.80;99.90;;;;;;5106280;28;19961;-40
2022/11/18 04:17:19;;;;;;;;;;;8.70;99.90;;;;;;5110657;28;20000;-43
2022/11/18 04:19:45;;;;;;;;;;;8.70;99.90;;;;;;5097238;28;19954;-39
2022/11/18 04:22:11;;;;;;;;;;;8.70;99.90;;;;;;5102864;28;19946;-37
2022/11/18 04:24:36;;;;;;;;;;;8.80;99.90;;;;;;5113727;28;19908;-37
2022/11/18 04:27:02;;;;;;;;;;;8.80;99.90;;;;;;5112439;28;20000;-40
2022/11/18 04:29:32;;;;;;;;;;;8.70;99.90;;;;;;5113580;28;19904;-37
2022/11/18 04:31:58;;;;;;;;;;;8.70;99.90;;;;;;5108310;28;19988;-40
2022/11/18 04:34:24;;;;;;;;;;;8.70;99.90;;;;;;5107597;28;20369;-40
2022/11/18 04:36:49;;;;;;;;;;;8.70;99.90;;;;;;5096746;28;19904;-41
2022/11/18 04:39:16;;;;;;;;;;;8.70;99.90;;;;;;5103886;28;19908;-42
2022/11/18 04:41:54;;;;;;;;;;;8.70;99.90;;;;;;5107669;28;19950;-40
2022/11/18 04:44:21;;;;;;;;;;;8.60;99.90;;;;;;5113316;28;20378;-46
2022/11/18 04:46:46;;;;;;;;;;;8.60;99.90;;;;;;5110070;28;19935;-46
2022/11/18 04:49:13;;;;;;;;;;;8.60;99.90;;;;;;5096727;28;19946;-44
2022/11/18 04:51:39;;;;;;;;;;;8.60;99.90;;;;;;5097557;28;19912;-45
2022/11/18 04:54:04;;;;;;;;;;;8.60;99.90;;;;;;5097067;28;20615;-32
2022/11/18 04:56:30;;;;;;;;;;;8.60;99.90;;;;;;5108486;27;19939;-32
2022/11/18 04:58:57;;;;;;;;;;;8.50;99.90;;;;;;5109391;28;20010;-40
2022/11/18 05:01:23;;;;;;;;;;;8.50;99.90;;;;;;5112797;28;20003;-38
2022/11/18 05:03:48;;;;;;;;;;;8.50;99.90;;;;;;5094769;28;19951;-44
2022/11/18 05:06:17;;;;;;;;;;;8.50;99.90;;;;;;5097694;28;19919;-40
2022/11/18 05:08:42;;;;;;;;;;;8.60;99.90;;;;;;5097380;28;20382;-41
2022/11/18 05:13:52;;;;;;;;;;;8.60;99.90;;;;;;5102925;28;19995;-43
2022/11/18 05:16:17;;;;;;;;;;;8.60;99.90;;;;;;5111717;28;19991;-39
2022/11/18 05:18:43;;;;;;;;;;;8.60;99.90;;;;;;5101859;28;19915;-38
2022/11/18 05:21:09;;;;;;;;;;;8.60;99.90;;;;;;5102366;28;19912;-39
2022/11/18 05:23:34;;;;;;;;;;;8.60;99.90;;;;;;5110326;28;19912;-38
2022/11/18 05:26:03;;;;;;;;;;;8.60;99.90;;;;;;5111433;28;20019;-41
2022/11/18 05:28:28;;;;;;;;;;;8.70;99.90;;;;;;5101292;28;20385;-40
2022/11/18 05:30:54;;;;;;;;;;;8.70;99.90;;;;;;5093356;28;19912;-40
2022/11/18 05:33:19;;;;;;;;;;;8.60;99.90;;;;;;5110904;28;19908;-35
2022/11/18 05:35:45;;;;;;;;;;;8.60;99.90;;;;;;5113620;28;19912;-39
2022/11/18 05:38:10;;;;;;;;;;;8.70;99.90;;;;;;5121281;28;19907;-41
2022/11/18 05:40:36;;;;;;;;;;;8.70;99.90;;;;;;5116950;28;19915;-38
2022/11/18 05:43:10;;;;;;;;;;;8.80;99.90;;;;;;5113336;28;19908;-34
2022/11/18 05:45:36;;;;;;;;;;;8.70;99.90;;;;;;5113323;28;20377;-40
2022/11/18 05:48:03;;;;;;;;;;;8.70;99.90;;;;;;5113445;28;19903;-35
2022/11/18 05:50:33;;;;;;;;;;;8.80;99.90;;;;;;5104397;28;21023;-38
2022/11/18 05:52:58;;;;;;;;;;;8.70;99.90;;;;;;5108388;28;19907;-40
2022/11/18 05:55:30;;;;;;;;;;;8.80;99.90;;;;;;5113480;28;20382;-43
2022/11/18 05:57:55;;;;;;;;;;;8.80;99.90;;;;;;5111913;28;19961;-40
2022/11/18 06:00:21;;;;;;;;;;;8.80;99.90;;;;;;5105324;28;19908;-42
2022/11/18 06:02:47;;;;;;;;;;;8.80;99.90;;;;;;5111958;28;19911;-42
2022/11/18 06:05:13;;;;;;;;;;;8.80;99.90;;;;;;5114662;28;19910;-48
2022/11/18 06:07:43;;;;;;;;;;;8.90;99.90;;;;;;5110580;28;20364;-46
2022/11/18 06:10:12;;;;;;;;;;;8.90;99.90;;;;;;5097001;28;20053;-46
2022/11/18 06:12:39;;;;;;;;;;;8.90;99.90;;;;;;5097479;28;19953;-45
2022/11/18 06:15:08;;;;;;;;;;;8.90;99.90;;;;;;5105733;28;20263;-43
2022/11/18 06:17:35;;;;;;;;;;;8.90;99.90;;;;;;5096637;28;19921;-41
2022/11/18 06:20:01;;;;;;;;;;;8.90;99.90;;;;;;5105928;28;20351;-37
2022/11/18 06:22:27;;;;;;;;;;;8.90;99.90;;;;;;5115219;28;19961;-43
2022/11/18 06:24:53;;;;;;;;;;;8.90;99.90;;;;;;5104758;28;19962;-40
2022/11/18 06:27:18;;;;;;;;;;;9.00;99.90;;;;;;5116836;28;19995;-39
2022/11/18 06:29:44;;;;;;;;;;;9.10;99.90;;;;;;5110736;28;20363;-37
2022/11/18 06:32:10;;;;;;;;;;;9.00;99.90;;;;;;5109092;28;19908;-40
2022/11/18 06:34:35;;;;;;;;;;;9.10;99.90;;;;;;5106264;28;20382;-39
2022/11/18 06:37:10;;;;;;;;;;;9.00;99.90;;;;;;5096057;28;19908;-41
2022/11/18 06:39:36;;;;;;;;;;;9.00;99.90;;;;;;5096479;28;19908;-38
2022/11/18 06:42:01;;;;;;;;;;;8.90;99.90;;;;;;5095808;28;19961;-38
2022/11/18 06:44:27;;;;;;;;;;;9.00;99.90;;;;;;5096404;28;20383;-36
2022/11/18 06:46:56;;;;;;;;;;;8.90;99.90;;;;;;5095208;28;19908;-41
2022/11/18 06:49:22;;;;;;;;;;;8.90;99.90;;;;;;5101769;28;19907;-43
2022/11/18 06:51:47;;;;;;;;;;;8.90;99.90;;;;;;5104732;28;20425;-42
2022/11/18 06:54:13;;;;;;;;;;;8.90;99.90;;;;;;5116623;28;19938;-36
2022/11/18 06:56:38;;;;;;;;;;;8.80;99.90;;;;;;5104498;28;20374;-40
2022/11/18 06:59:04;;;;;;;;;;;8.90;99.90;;;;;;5096529;28;19927;-39
2022/11/18 07:01:30;;;;;;;;;;;8.90;99.90;;;;;;5096074;28;19904;-38
2022/11/18 07:03:59;;;;;;;;;;;9.00;99.90;;;;;;5095975;28;20328;-42
2022/11/18 07:06:26;;;;;;;;;;;9.00;99.90;;;;;;5095656;28;20033;-46
2022/11/18 07:08:51;;;;;;;;;;;9.00;99.90;;;;;;5107449;28;19947;-43
2022/11/18 07:11:18;;;;;;;;;;;9.10;99.90;;;;;;5104471;28;19954;-40
2022/11/18 07:13:44;;;;;;;;;;;9.10;99.90;;;;;;5108346;28;19912;-47
2022/11/18 07:16:13;;;;;;;;;;;9.10;99.90;;;;;;5101807;28;19908;-44
2022/11/18 07:18:40;;;;;;;;;;;9.10;99.90;;;;;;5111042;28;20284;-43
2022/11/18 07:21:07;;;;;;;;;;;9.10;99.90;;;;;;5107722;28;19908;-49
2022/11/18 07:23:33;;;;;;;;;;;9.20;99.90;;;;;;5116114;28;20486;-46
2022/11/18 07:25:58;;;;;;;;;;;9.20;99.90;;;;;;5114091;28;20014;-42
2022/11/18 07:28:24;;;;;;;;;;;9.20;99.90;;;;;;5101274;28;20368;-39
2022/11/18 07:30:50;;;;;;;;;;;9.20;99.90;;;;;;5095427;28;19915;-38
2022/11/18 07:33:15;;;;;;;;;;;9.20;99.90;;;;;;5096063;28;20418;-41
2022/11/18 07:35:41;;;;;;;;;;;9.20;99.90;;;;;;5099665;28;19996;-37
2022/11/18 07:38:06;;;;;;;;;;;9.30;99.90;;;;;;5114307;28;19903;-39
2022/11/18 07:40:32;;;;;;;;;;;9.30;99.90;;;;;;5115673;28;19998;-37
2022/11/18 07:42:57;;;;;;;;;;;9.30;99.90;;;;;;5115703;28;19954;-33
2022/11/18 07:45:23;;;;;;;;;;;9.30;99.90;;;;;;5106712;28;19916;-41
2022/11/18 07:47:49;;;;;;;;;;;9.40;99.90;;;;;;5095389;28;19953;-40
2022/11/18 07:50:15;;;;;;;;;;;9.40;99.90;;;;;;5095363;28;20257;-39
2022/11/18 07:52:40;;;;;;;;;;;9.30;99.90;;;;;;5095378;28;19904;-41
2022/11/18 07:55:06;;;;;;;;;;;9.30;99.90;;;;;;5095020;28;19904;-36
2022/11/18 07:57:32;;;;;;;;;;;9.40;99.90;;;;;;5094383;28;19912;-41
2022/11/18 07:59:57;;;;;;;;;;;9.40;99.90;;;;;;5094878;28;19908;-36
2022/11/18 08:02:23;;;;;;;;;;;9.40;99.90;;;;;;5094344;28;19908;-37
2022/11/18 08:04:48;;;;;;;;;;;9.50;99.90;;;;;;5099975;28;20283;-39
2022/11/18 08:07:14;;;;;;;;;;;9.50;99.90;;;;;;5095601;28;19955;-37
2022/11/18 08:09:39;;;;;;;;;;;9.60;99.90;;;;;;5101036;28;19915;-36
2022/11/18 08:12:05;;;;;;;;;;;9.70;99.90;;;;;;5106819;27;20386;-41
2022/11/18 08:14:30;;;;;;;;;;;9.70;99.90;;;;;;5117849;27;19957;-41
2022/11/18 08:16:56;;;;;;;;;;;9.70;99.90;;;;;;5115053;27;19908;-41
2022/11/18 08:19:21;;;;;;;;;;;9.80;99.90;;;;;;5099407;28;19908;-42
2022/11/18 08:21:47;;;;;;;;;;;9.80;99.90;;;;;;5114815;28;19938;-43
2022/11/18 08:24:12;;;;;;;;;;;9.90;99.90;;;;;;5111853;28;19943;-40
2022/11/18 08:26:38;;;;;;;;;;;9.90;99.90;;;;;;5114852;28;20366;-38
2022/11/18 08:29:03;;;;;;;;;;;9.90;99.90;;;;;;5113759;28;19918;-41
2022/11/18 08:31:29;;;;;;;;;;;9.90;99.90;;;;;;5100949;28;19912;-39
2022/11/18 08:33:55;;;;;;;;;;;9.90;99.90;;;;;;5114896;28;19934;-41
2022/11/18 08:36:22;;;;;;;;;;;9.90;99.90;;;;;;5114914;27;20500;-37
2022/11/18 08:38:48;;;;;;;;;;;9.90;99.90;;;;;;5114828;28;20262;-42
2022/11/18 08:41:16;;;;;;;;;;;9.90;99.90;;;;;;5111046;28;20014;-36
2022/11/18 08:43:41;;;;;;;;;;;9.90;99.90;;;;;;5104358;28;19907;-38
2022/11/18 08:46:07;;;;;;;;;;;10.00;99.90;;;;;;5101535;28;19915;-43
2022/11/18 08:48:32;;;;;;;;;;;9.90;99.90;;;;;;5106167;28;19946;-36
2022/11/18 08:50:58;;;;;;;;;;;10.00;99.90;;;;;;5096470;28;20348;-41
2022/11/18 08:53:24;;;;;;;;;;;10.00;99.90;;;;;;5104295;28;20375;-40
2022/11/18 08:55:56;;;;;;;;;;;10.00;99.90;;;;;;5101069;28;19918;-40
2022/11/18 08:58:21;;;;;;;;;;;10.00;99.90;;;;;;5098081;28;20428;-39
2022/11/18 09:00:47;;;;;;;;;;;10.10;99.90;;;;;;5096575;27;19908;-38
2022/11/18 09:03:12;;;;;;;;;;;10.10;99.90;;;;;;5111478;28;19908;-41
2022/11/18 09:05:38;;;;;;;;;;;10.10;99.90;;;;;;5109078;28;19969;-38
2022/11/18 09:08:04;;;;;;;;;;;10.30;99.90;;;;;;5094032;28;19927;-41
2022/11/18 09:10:29;;;;;;;;;;;10.20;99.90;;;;;;5093592;28;19919;-40
2022/11/18 09:12:55;;;;;;;;;;;10.20;99.90;;;;;;5093370;28;19934;-40
2022/11/18 09:15:22;;;;;;;;;;;10.30;99.90;;;;;;5093279;28;19908;-46
2022/11/18 09:17:48;;;;;;;;;;;10.30;99.90;;;;;;5097834;28;19930;-33
2022/11/18 09:20:14;;;;;;;;;;;10.20;99.90;;;;;;5096374;27;20002;-37
2022/11/18 09:22:40;;;;;;;;;;;10.20;99.90;;;;;;5093953;28;19908;-41
2022/11/18 09:25:06;;;;;;;;;;;10.20;99.90;;;;;;5093732;28;19915;-39
2022/11/18 09:27:31;;;;;;;;;;;10.20;99.90;;;;;;5093463;28;19908;-40
2022/11/18 09:29:57;;;;;;;;;;;10.20;99.90;;;;;;5093239;28;19908;-41
2022/11/18 09:32:22;;;;;;;;;;;10.20;99.90;;;;;;5092263;28;20332;-36
2022/11/18 09:34:48;;;;;;;;;;;10.20;99.90;;;;;;5093309;28;19908;-38
2022/11/18 09:37:13;;;;;;;;;;;10.20;99.90;;;;;;5092889;28;19967;-39
2022/11/18 09:39:38;;;;;;;;;;;10.20;99.90;;;;;;5094886;28;19907;-39
2022/11/18 09:42:11;;;;;;;;;;;10.30;99.90;;;;;;5100759;28;19904;-39
2022/11/18 09:44:52;;;;;;;;;;;10.30;99.90;;;;;;5092582;28;19908;-38
2022/11/18 09:47:33;;;;;;;;;;;10.30;99.90;;;;;;5096783;28;19919;-39
2022/11/18 09:50:15;;;;;;;;;;;10.30;99.90;;;;;;5094022;28;19908;-36
2022/11/18 09:52:59;;;;;;;;;;;10.40;99.90;;;;;;5102909;28;20284;-40
2022/11/18 09:55:24;;;;;;;;;;;10.40;99.90;;;;;;5093152;28;20338;-38
2022/11/18 09:57:51;;;;;;;;;;;10.50;99.90;;;;;;5097759;28;19915;-40
2022/11/18 10:00:17;;;;;;;;;;;10.40;99.90;;;;;;5105400;28;19908;-39
2022/11/18 10:02:45;;;;;;;;;;;10.50;99.90;;;;;;5092151;28;20283;-39
2022/11/18 10:05:13;;;;;;;;;;;10.50;99.90;;;;;;5103451;28;19916;-41
2022/11/18 10:07:46;;;;;;;;;;;10.50;99.90;;;;;;5098534;28;19933;-36
2022/11/18 10:10:15;;;;;;;;;;;10.60;99.90;;;;;;5112603;28;20426;-38
2022/11/18 10:12:45;;;;;;;;;;;10.60;99.90;;;;;;5112448;28;19904;-38
2022/11/18 10:15:14;;;;;;;;;;;10.70;99.90;;;;;;5102144;28;19912;-42
2022/11/18 10:17:40;;;;;;;;;;;10.80;99.90;;;;;;5108210;28;19908;-41
2022/11/18 10:20:09;;;;;;;;;;;10.90;99.90;;;;;;5102273;28;19914;-36
2022/11/18 10:22:40;;;;;;;;;;;10.80;99.90;;;;;;5103240;28;20012;-40
2022/11/18 10:25:11;;;;;;;;;;;11.00;99.90;;;;;;5091998;28;20383;-38
2022/11/18 10:27:38;;;;;;;;;;;11.00;99.90;;;;;;5092176;28;19908;-41
2022/11/18 10:30:11;;;;;;;;;;;11.10;99.90;;;;;;5091591;28;19923;-40
2022/11/18 10:32:51;;;;;;;;;;;11.10;99.90;;;;;;5107542;28;20367;-42
2022/11/18 10:35:26;;;;;;;;;;;11.10;99.90;;;;;;5101826;28;19908;-54
2022/11/18 10:38:00;;;;;;;;;;;11.20;99.90;;;;;;5109206;28;19919;-55
2022/11/18 10:40:26;;;;;;;;;;;11.20;99.90;;;;;;5097393;28;20409;-42
2022/11/18 10:42:52;;;;;;;;;;;11.20;99.90;;;;;;5091255;28;19958;-40
2022/11/18 10:45:20;;;;;;;;;;;11.30;99.90;;;;;;5093512;28;20322;-40
2022/11/18 10:48:15;;;;;;;;;;;11.40;99.90;;;;;;5095300;28;19908;-39
2022/11/18 10:50:42;;;;;;;;;;;11.50;99.90;;;;;;5084259;28;19912;-42
2022/11/18 10:53:26;;;;;;;;;;;11.50;99.90;;;;;;5115208;28;19903;-39
2022/11/18 10:55:59;;;;;;;;;;;11.50;99.90;;;;;;5096264;28;20364;-42
2022/11/18 10:58:25;;;;;;;;;;;11.40;99.90;;;;;;5053654;28;1184979;-41
2022/11/18 11:00:53;;;;;;;;;;;11.40;99.90;;;;;;5095330;28;19950;-37
2022/11/18 11:03:25;;;;;;;;;;;11.20;99.90;;;;;;5096251;28;19908;-37
2022/11/18 11:06:14;;;;;;;;;;;11.20;99.90;;;;;;5095278;28;19916;-37
2022/11/18 11:08:47;;;;;;;;;;;11.10;99.90;;;;;;5086702;28;19933;-44
2022/11/18 11:11:24;;;;;;;;;;;11.00;99.90;;;;;;5094052;28;19912;-42
2022/11/18 11:13:51;;;;;;;;;;;11.00;99.90;;;;;;5109573;28;19911;-41
2022/11/18 11:16:17;;;;;;;;;;;10.90;99.90;;;;;;5116133;28;19939;-39
2022/11/18 11:18:43;;;;;;;;;;;10.90;99.90;;;;;;5115044;28;19986;-42
2022/11/18 11:21:19;;;;;;;;;;;10.80;99.90;;;;;;5095972;28;20276;-39
2022/11/18 11:23:45;;;;;;;;;;;10.80;99.90;;;;;;5108525;28;20376;-40
2022/11/18 11:26:19;;;;;;;;;;;10.80;99.90;;;;;;5097943;28;19952;-38
2022/11/18 11:28:55;;;;;;;;;;;10.80;99.90;;;;;;5107298;28;19932;-39
2022/11/18 11:31:28;;;;;;;;;;;10.80;99.90;;;;;;5104025;28;20308;-42
2022/11/18 11:33:53;;;;;;;;;;;10.80;99.90;;;;;;5111368;28;19915;-34
2022/11/18 11:36:22;;;;;;;;;;;10.80;99.90;;;;;;5111164;28;19949;-40
2022/11/18 11:38:53;;;;;;;;;;;10.80;99.90;;;;;;5109391;28;20335;-36
2022/11/18 11:41:21;;;;;;;;;;;10.80;99.90;;;;;;5105136;27;20306;-38
2022/11/18 11:44:05;;;;;;;;;;;10.90;99.90;;;;;;5099709;28;19961;-40
2022/11/18 11:50:11;;;;;;;;;;;11.10;99.90;;;;;;5092862;28;19918;-39
2022/11/18 11:52:47;;;;;;;;;;;11.30;99.90;;;;;;5090008;28;20366;-42
2022/11/18 11:55:20;;;;;;;;;;;11.30;99.90;;;;;;5094219;28;19987;-43
2022/11/18 11:57:55;;;;;;;;;;;11.40;99.90;;;;;;5107387;28;20014;-39
2022/11/18 12:00:20;;;;;;;;;;;11.50;99.90;;;;;;5115439;28;19961;-38
2022/11/18 12:02:58;;;;;;;;;;;11.60;99.90;;;;;;5106415;28;19908;-39
2022/11/18 12:05:34;;;;;;;;;;;11.70;99.90;;;;;;5094961;28;19956;-41
2022/11/18 12:08:05;;;;;;;;;;;11.80;99.90;;;;;;5104760;28;19908;-42
2022/11/18 12:10:49;;;;;;;;;;;11.90;99.90;;;;;;5095017;28;19912;-38
2022/11/18 12:13:21;;;;;;;;;;;11.90;99.90;;;;;;5110045;28;19914;-46
2022/11/18 12:15:49;;;;;;;;;;;11.90;99.90;;;;;;5097902;28;20368;-45
2022/11/18 12:18:25;;;;;;;;;;;11.80;99.90;;;;;;5094643;28;19915;-46
2022/11/18 12:20:51;;;;;;;;;;;11.90;99.90;;;;;;5094632;28;20007;-46
2022/11/18 12:23:20;;;;;;;;;;;12.10;99.90;;;;;;5106991;28;19908;-44
2022/11/18 12:25:45;;;;;;;;;;;12.30;99.90;;;;;;5099965;28;19961;-43
2022/11/18 12:28:21;;;;;;;;;;;12.30;99.90;;;;;;5113276;28;19908;-44
2022/11/18 12:30:46;;;;;;;;;;;12.20;99.90;;;;;;5114589;28;19961;-35
2022/11/18 12:33:14;;;;;;;;;;;12.20;99.90;;;;;;5097835;28;19908;-38
2022/11/18 12:35:45;;;;;;;;;;;12.10;99.90;;;;;;5113757;28;20351;-40
2022/11/18 12:38:27;;;;;;;;;;;12.00;99.90;;;;;;5114002;28;19912;-37
2022/11/18 12:40:52;;;;;;;;;;;11.90;99.90;;;;;;5114865;28;19903;-40
2022/11/18 12:46:02;;;;;;;;;;;11.70;99.90;;;;;;5114697;28;19966;-41
2022/11/18 12:48:33;;;;;;;;;;;11.60;99.90;;;;;;5112353;28;20335;-38
2022/11/18 12:51:23;;;;;;;;;;;11.60;99.90;;;;;;5109492;28;19942;-39
2022/11/18 12:53:50;;;;;;;;;;;11.50;99.90;;;;;;5100729;28;19949;-31
2022/11/18 12:56:32;;;;;;;;;;;11.60;99.90;;;;;;5103161;28;19943;-40
2022/11/18 12:58:59;;;;;;;;;;;11.60;99.90;;;;;;5094391;28;20368;-31
2022/11/18 13:01:25;;;;;;;;;;;11.50;99.90;;;;;;5096037;28;20419;-31
2022/11/18 13:03:51;;;;;;;;;;;11.60;99.90;;;;;;5101901;28;19937;-31
2022/11/18 13:06:20;;;;;;;;;;;11.70;99.90;;;;;;5111513;28;19908;-31
2022/11/18 13:08:53;;;;;;;;;;;11.60;99.90;;;;;;5114327;28;20484;-31
2022/11/18 13:19:40;;;;;;;;;;;11.60;99.90;;;;;;5094336;28;19998;-45
2022/11/18 13:24:59;;;;;;;;;;;11.70;99.90;;;;;;5093981;28;19911;-46
2022/11/18 13:27:41;;;;;;;;;;;11.80;99.90;;;;;;5093417;28;19904;-46
2022/11/18 13:30:10;;;;;;;;;;;11.80;99.90;;;;;;5094512;28;19912;-45
2022/11/18 13:32:41;;;;;;;;;;;11.80;99.90;;;;;;5094943;28;19908;-44
2022/11/18 13:35:10;;;;;;;;;;;11.80;99.90;;;;;;5092641;28;19996;-46
2022/11/18 13:37:46;;;;;;;;;;;11.80;99.90;;;;;;5089925;28;20388;-46
2022/11/18 13:40:21;;;;;;;;;;;11.80;99.90;;;;;;5103674;28;20365;-50
2022/11/18 13:42:47;;;;;;;;;;;11.80;99.90;;;;;;5098571;28;20288;-50
2022/11/18 13:45:12;;;;;;;;;;;11.90;99.90;;;;;;5100062;28;19952;-49
2022/11/18 13:47:57;;;;;;;;;;;11.90;99.90;;;;;;5098230;28;20418;-46
2022/11/18 13:50:28;;;;;;;;;;;11.80;99.90;;;;;;5095398;28;19957;-48
2022/11/18 13:52:59;;;;;;;;;;;11.80;99.90;;;;;;5101337;28;20444;-45
2022/11/18 13:55:35;;;;;;;;;;;11.70;99.90;;;;;;5098815;28;19937;-45
2022/11/18 13:58:05;;;;;;;;;;;11.60;99.90;;;;;;5103040;28;19999;-47
2022/11/18 14:00:32;;;;;;;;;;;11.60;99.90;;;;;;5101490;28;20399;-47
2022/11/18 14:03:03;;;;;;;;;;;11.60;99.90;;;;;;5099897;28;20427;-44
2022/11/18 14:05:29;;;;;;;;;;;11.60;99.90;;;;;;5097131;28;19908;-45
2022/11/18 14:08:03;;;;;;;;;;;11.60;99.90;;;;;;5108144;28;19908;-46
2022/11/18 14:10:30;;;;;;;;;;;11.60;99.90;;;;;;5097737;28;19923;-50
2022/11/18 14:12:59;;;;;;;;;;;11.60;99.90;;;;;;5093062;28;19904;-47
2022/11/18 14:15:32;;;;;;;;;;;11.60;99.90;;;;;;5101407;28;19949;-49
2022/11/18 14:17:59;;;;;;;;;;;11.50;99.90;;;;;;5111587;28;20366;-46
2022/11/18 14:20:25;;;;;;;;;;;11.50;99.90;;;;;;5108345;28;19904;-45
2022/11/18 14:22:53;;;;;;;;;;;11.50;99.90;;;;;;5094072;28;20402;-48
2022/11/18 14:25:23;;;;;;;;;;;11.50;99.90;;;;;;5102852;28;20253;-45
2022/11/18 14:27:49;;;;;;;;;;;11.40;99.90;;;;;;5103929;28;19907;-47
2022/11/18 14:30:34;;;;;;;;;;;11.40;99.90;;;;;;5104610;28;20367;-48
2022/11/18 14:33:20;;;;;;;;;;;11.30;99.90;;;;;;5108630;28;19908;-50
2022/11/18 14:35:59;;;;;;;;;;;11.20;99.90;;;;;;5100481;28;19914;-47
2022/11/18 14:38:29;;;;;;;;;;;11.20;99.90;;;;;;5114783;28;19998;-48
2022/11/18 14:40:56;;;;;;;;;;;11.10;99.90;;;;;;5103835;28;20329;-47
2022/11/18 14:43:22;;;;;;;;;;;11.10;99.90;;;;;;5101352;28;20382;-51
2022/11/18 14:45:47;;;;;;;;;;;11.00;99.90;;;;;;5099141;28;20344;-45
2022/11/18 14:48:14;;;;;;;;;;;10.90;99.90;;;;;;5108804;28;19919;-45
2022/11/18 14:50:39;;;;;;;;;;;10.90;99.90;;;;;;5095042;28;19998;-46
2022/11/18 14:53:05;;;;;;;;;;;10.80;99.90;;;;;;5103277;28;19969;-46
2022/11/18 14:55:31;;;;;;;;;;;10.70;99.90;;;;;;5121120;27;19908;-46
2022/11/18 14:57:56;;;;;;;;;;;10.70;99.90;;;;;;5116690;28;20372;-47